sensor_id;sensor_type;location;lat;lon;timestamp;temperature;humidity
34837;DHT22;21053;50.848;4.652;2022-08-21T00:02:01;15.10;99.90
34837;DHT22;21053;50.848;4.652;2022-08-21T00:04:27;15.00;99.90
34837;DHT22;21053;50.848;4.652;2022-08-21T00:06:57;15.10;99.90
34837;DHT22;21053;50.848;4.652;2022-08-21T00:09:25;15.10;99.90
34837;DHT22;21053;50.848;4.652;2022-08-21T00:11:54;15.00;99.90
34837;DHT22;21053;50.848;4.652;2022-08-21T00:14:20;14.90;99.90
34837;DHT22;21053;50.848;4.652;2022-08-21T00:16:46;14.80;99.90
34837;DHT22;21053;50.848;4.652;2022-08-21T00:19:12;14.80;99.90
34837;DHT22;21053;50.848;4.652;2022-08-21T00:21:39;14.80;99.90
34837;DHT22;21053;50.848;4.652;2022-08-21T00:24:05;14.80;99.90
34837;DHT22;21053;50.848;4.652;2022-08-21T00:26:34;14.80;99.90
34837;DHT22;21053;50.848;4.652;2022-08-21T00:29:00;14.90;99.90
34837;DHT22;21053;50.848;4.652;2022-08-21T00:31:25;14.80;99.90
34837;DHT22;21053;50.848;4.652;2022-08-21T00:33:52;14.60;99.90
34837;DHT22;21053;50.848;4.652;2022-08-21T00:36:19;14.60;99.90
34837;DHT22;21053;50.848;4.652;2022-08-21T00:38:46;14.60;99.90
34837;DHT22;21053;50.848;4.652;2022-08-21T00:41:12;14.50;99.90
34837;DHT22;21053;50.848;4.652;2022-08-21T00:43:39;14.50;99.90
34837;DHT22;21053;50.848;4.652;2022-08-21T00:46:07;14.70;99.90
34837;DHT22;21053;50.848;4.652;2022-08-21T00:48:35;14.70;99.90
34837;DHT22;21053;50.848;4.652;2022-08-21T00:51:08;14.70;99.90
34837;DHT22;21053;50.848;4.652;2022-08-21T00:53:39;14.70;99.90
34837;DHT22;21053;50.848;4.652;2022-08-21T00:56:07;14.60;99.90
34837;DHT22;21053;50.848;4.652;2022-08-21T00:58:37;14.50;99.90
34837;DHT22;21053;50.848;4.652;2022-08-21T01:01:06;14.40;99.90
34837;DHT22;21053;50.848;4.652;2022-08-21T01:03:36;14.40;99.90
34837;DHT22;21053;50.848;4.652;2022-08-21T01:06:05;14.50;99.90
34837;DHT22;21053;50.848;4.652;2022-08-21T01:08:33;14.50;99.90
34837;DHT22;21053;50.848;4.652;2022-08-21T01:11:03;14.50;99.90
34837;DHT22;21053;50.848;4.652;2022-08-21T01:13:32;14.40;99.90
34837;DHT22;21053;50.848;4.652;2022-08-21T01:16:04;14.50;99.90
34837;DHT22;21053;50.848;4.652;2022-08-21T01:18:30;14.50;99.90
34837;DHT22;21053;50.848;4.652;2022-08-21T01:21:10;14.50;99.90
34837;DHT22;21053;50.848;4.652;2022-08-21T01:23:39;14.50;99.90
34837;DHT22;21053;50.848;4.652;2022-08-21T01:26:07;14.50;99.90
34837;DHT22;21053;50.848;4.652;2022-08-21T01:28:37;14.40;99.90
34837;DHT22;21053;50.848;4.652;2022-08-21T01:31:06;14.30;99.90
34837;DHT22;21053;50.848;4.652;2022-08-21T01:33:34;14.30;99.90
34837;DHT22;21053;50.848;4.652;2022-08-21T01:36:02;14.30;99.90
34837;DHT22;21053;50.848;4.652;2022-08-21T01:38:28;14.30;99.90
34837;DHT22;21053;50.848;4.652;2022-08-21T01:40:55;14.30;99.90
34837;DHT22;21053;50.848;4.652;2022-08-21T01:43:20;14.30;99.90
34837;DHT22;21053;50.848;4.652;2022-08-21T01:45:46;14.20;99.90
34837;DHT22;21053;50.848;4.652;2022-08-21T01:48:14;14.20;99.90
34837;DHT22;21053;50.848;4.652;2022-08-21T01:50:40;14.10;99.90
34837;DHT22;21053;50.848;4.652;2022-08-21T01:53:07;14.10;99.90
34837;DHT22;21053;50.848;4.652;2022-08-21T01:55:33;14.10;99.90
34837;DHT22;21053;50.848;4.652;2022-08-21T01:58:00;14.10;99.90
34837;DHT22;21053;50.848;4.652;2022-08-21T02:00:27;14.10;99.90
34837;DHT22;21053;50.848;4.652;2022-08-21T02:02:53;14.10;99.90
34837;DHT22;21053;50.848;4.652;2022-08-21T02:05:21;14.10;99.90
34837;DHT22;21053;50.848;4.652;2022-08-21T02:07:49;14.10;99.90
34837;DHT22;21053;50.848;4.652;2022-08-21T02:10:21;14.10;99.90
34837;DHT22;21053;50.848;4.652;2022-08-21T02:12:47;14.10;99.90
34837;DHT22;21053;50.848;4.652;2022-08-21T02:15:16;14.10;99.90
34837;DHT22;21053;50.848;4.652;2022-08-21T02:17:51;14.00;99.90
34837;DHT22;21053;50.848;4.652;2022-08-21T02:20:29;13.90;99.90
34837;DHT22;21053;50.848;4.652;2022-08-21T02:22:56;13.90;99.90
34837;DHT22;21053;50.848;4.652;2022-08-21T02:25:24;14.00;99.90
34837;DHT22;21053;50.848;4.652;2022-08-21T02:27:53;14.00;99.90
34837;DHT22;21053;50.848;4.652;2022-08-21T02:30:28;14.10;99.90
34837;DHT22;21053;50.848;4.652;2022-08-21T02:32:56;14.10;99.90
34837;DHT22;21053;50.848;4.652;2022-08-21T02:35:26;14.00;99.90
34837;DHT22;21053;50.848;4.652;2022-08-21T02:38:03;14.00;99.90
34837;DHT22;21053;50.848;4.652;2022-08-21T02:40:31;13.90;99.90
34837;DHT22;21053;50.848;4.652;2022-08-21T02:42:58;14.00;99.90
34837;DHT22;21053;50.848;4.652;2022-08-21T02:45:27;14.10;99.90
34837;DHT22;21053;50.848;4.652;2022-08-21T02:47:57;13.80;99.90
34837;DHT22;21053;50.848;4.652;2022-08-21T02:50:33;13.80;99.90
34837;DHT22;21053;50.848;4.652;2022-08-21T02:53:01;13.80;99.90
34837;DHT22;21053;50.848;4.652;2022-08-21T02:55:29;13.80;99.90
34837;DHT22;21053;50.848;4.652;2022-08-21T02:57:57;13.90;99.90
34837;DHT22;21053;50.848;4.652;2022-08-21T03:00:26;13.90;99.90
34837;DHT22;21053;50.848;4.652;2022-08-21T03:02:55;13.90;99.90
34837;DHT22;21053;50.848;4.652;2022-08-21T03:05:24;13.80;99.90
34837;DHT22;21053;50.848;4.652;2022-08-21T03:07:50;13.80;99.90
34837;DHT22;21053;50.848;4.652;2022-08-21T03:10:20;13.90;99.90
34837;DHT22;21053;50.848;4.652;2022-08-21T03:12:47;13.80;99.90
34837;DHT22;21053;50.848;4.652;2022-08-21T03:15:16;13.70;99.90
34837;DHT22;21053;50.848;4.652;2022-08-21T03:17:44;13.70;99.90
34837;DHT22;21053;50.848;4.652;2022-08-21T03:20:10;13.70;99.90
34837;DHT22;21053;50.848;4.652;2022-08-21T03:22:38;13.80;99.90
34837;DHT22;21053;50.848;4.652;2022-08-21T03:25:04;13.80;99.90
34837;DHT22;21053;50.848;4.652;2022-08-21T03:27:32;13.80;99.90
34837;DHT22;21053;50.848;4.652;2022-08-21T03:30:00;13.70;99.90
34837;DHT22;21053;50.848;4.652;2022-08-21T03:32:26;13.80;99.90
34837;DHT22;21053;50.848;4.652;2022-08-21T03:34:53;13.80;99.90
34837;DHT22;21053;50.848;4.652;2022-08-21T03:37:19;13.80;99.90
34837;DHT22;21053;50.848;4.652;2022-08-21T03:39:51;13.80;99.90
34837;DHT22;21053;50.848;4.652;2022-08-21T03:42:17;13.80;99.90
34837;DHT22;21053;50.848;4.652;2022-08-21T03:44:45;13.80;99.90
34837;DHT22;21053;50.848;4.652;2022-08-21T03:47:11;13.90;99.90
34837;DHT22;21053;50.848;4.652;2022-08-21T03:49:37;13.90;99.90
34837;DHT22;21053;50.848;4.652;2022-08-21T03:52:03;13.80;99.90
34837;DHT22;21053;50.848;4.652;2022-08-21T03:54:30;13.80;99.90
34837;DHT22;21053;50.848;4.652;2022-08-21T03:56:59;13.70;99.90
34837;DHT22;21053;50.848;4.652;2022-08-21T03:59:25;13.70;99.90
34837;DHT22;21053;50.848;4.652;2022-08-21T04:01:56;13.80;99.90
34837;DHT22;21053;50.848;4.652;2022-08-21T04:04:25;13.70;99.90
34837;DHT22;21053;50.848;4.652;2022-08-21T04:07:04;13.70;99.90
34837;DHT22;21053;50.848;4.652;2022-08-21T04:09:30;13.70;99.90
34837;DHT22;21053;50.848;4.652;2022-08-21T04:11:59;13.60;99.90
34837;DHT22;21053;50.848;4.652;2022-08-21T04:14:26;13.60;99.90
34837;DHT22;21053;50.848;4.652;2022-08-21T04:16:54;13.70;99.90
34837;DHT22;21053;50.848;4.652;2022-08-21T04:19:22;13.70;99.90
34837;DHT22;21053;50.848;4.652;2022-08-21T04:21:52;13.70;99.90
34837;DHT22;21053;50.848;4.652;2022-08-21T04:24:18;13.70;99.90
34837;DHT22;21053;50.848;4.652;2022-08-21T04:26:45;13.70;99.90
34837;DHT22;21053;50.848;4.652;2022-08-21T04:29:12;13.70;99.90
34837;DHT22;21053;50.848;4.652;2022-08-21T04:31:38;13.60;99.90
34837;DHT22;21053;50.848;4.652;2022-08-21T04:34:04;13.60;99.90
34837;DHT22;21053;50.848;4.652;2022-08-21T04:36:32;13.50;99.90
34837;DHT22;21053;50.848;4.652;2022-08-21T04:39:04;13.50;99.90
34837;DHT22;21053;50.848;4.652;2022-08-21T04:41:31;13.40;99.90
34837;DHT22;21053;50.848;4.652;2022-08-21T04:44:00;13.50;99.90
34837;DHT22;21053;50.848;4.652;2022-08-21T04:46:27;13.40;99.90
34837;DHT22;21053;50.848;4.652;2022-08-21T04:48:54;13.30;99.90
34837;DHT22;21053;50.848;4.652;2022-08-21T04:51:36;13.30;99.90
34837;DHT22;21053;50.848;4.652;2022-08-21T04:54:17;13.40;99.90
34837;DHT22;21053;50.848;4.652;2022-08-21T04:56:59;13.40;99.90
34837;DHT22;21053;50.848;4.652;2022-08-21T04:59:37;13.40;99.90
34837;DHT22;21053;50.848;4.652;2022-08-21T05:02:05;13.40;99.90
34837;DHT22;21053;50.848;4.652;2022-08-21T05:04:35;13.30;99.90
34837;DHT22;21053;50.848;4.652;2022-08-21T05:07:05;13.30;99.90
34837;DHT22;21053;50.848;4.652;2022-08-21T05:09:34;13.40;99.90
34837;DHT22;21053;50.848;4.652;2022-08-21T05:12:03;13.40;99.90
34837;DHT22;21053;50.848;4.652;2022-08-21T05:14:29;13.40;99.90
34837;DHT22;21053;50.848;4.652;2022-08-21T05:16:58;13.50;99.90
34837;DHT22;21053;50.848;4.652;2022-08-21T05:19:25;13.40;99.90
34837;DHT22;21053;50.848;4.652;2022-08-21T05:21:51;13.50;99.90
34837;DHT22;21053;50.848;4.652;2022-08-21T05:24:20;13.60;99.90
34837;DHT22;21053;50.848;4.652;2022-08-21T05:26:46;13.70;99.90
34837;DHT22;21053;50.848;4.652;2022-08-21T05:29:15;13.80;99.90
34837;DHT22;21053;50.848;4.652;2022-08-21T05:31:41;13.90;99.90
34837;DHT22;21053;50.848;4.652;2022-08-21T05:34:10;13.90;99.90
34837;DHT22;21053;50.848;4.652;2022-08-21T05:36:37;13.90;99.90
34837;DHT22;21053;50.848;4.652;2022-08-21T05:39:04;13.90;99.90
34837;DHT22;21053;50.848;4.652;2022-08-21T05:41:33;14.00;99.90
34837;DHT22;21053;50.848;4.652;2022-08-21T05:43:59;14.10;99.90
34837;DHT22;21053;50.848;4.652;2022-08-21T05:46:26;14.20;99.90
34837;DHT22;21053;50.848;4.652;2022-08-21T05:48:53;14.20;99.90
34837;DHT22;21053;50.848;4.652;2022-08-21T05:51:19;14.20;99.90
34837;DHT22;21053;50.848;4.652;2022-08-21T05:53:45;14.20;99.90
34837;DHT22;21053;50.848;4.652;2022-08-21T05:56:14;14.40;99.90
34837;DHT22;21053;50.848;4.652;2022-08-21T05:58:42;14.50;99.90
34837;DHT22;21053;50.848;4.652;2022-08-21T06:01:08;14.60;99.90
34837;DHT22;21053;50.848;4.652;2022-08-21T06:03:38;14.60;99.90
34837;DHT22;21053;50.848;4.652;2022-08-21T06:06:05;14.80;99.90
34837;DHT22;21053;50.848;4.652;2022-08-21T06:08:32;14.80;99.90
34837;DHT22;21053;50.848;4.652;2022-08-21T06:10:59;15.00;99.90
34837;DHT22;21053;50.848;4.652;2022-08-21T06:13:27;15.00;99.90
34837;DHT22;21053;50.848;4.652;2022-08-21T06:18:39;15.20;99.90
34837;DHT22;21053;50.848;4.652;2022-08-21T06:21:06;15.30;99.90
34837;DHT22;21053;50.848;4.652;2022-08-21T06:23:32;15.40;99.90
34837;DHT22;21053;50.848;4.652;2022-08-21T06:26:02;15.40;99.90
34837;DHT22;21053;50.848;4.652;2022-08-21T06:28:28;15.60;99.90
34837;DHT22;21053;50.848;4.652;2022-08-21T06:30:55;15.70;99.90
34837;DHT22;21053;50.848;4.652;2022-08-21T06:33:24;15.80;99.90
34837;DHT22;21053;50.848;4.652;2022-08-21T06:35:52;15.90;99.90
34837;DHT22;21053;50.848;4.652;2022-08-21T06:38:20;16.00;99.90
34837;DHT22;21053;50.848;4.652;2022-08-21T06:40:46;16.10;99.90
34837;DHT22;21053;50.848;4.652;2022-08-21T06:43:16;16.20;99.90
34837;DHT22;21053;50.848;4.652;2022-08-21T06:45:44;16.40;99.90
34837;DHT22;21053;50.848;4.652;2022-08-21T06:48:12;16.50;99.90
34837;DHT22;21053;50.848;4.652;2022-08-21T06:50:39;16.60;99.90
34837;DHT22;21053;50.848;4.652;2022-08-21T06:53:09;16.70;99.90
34837;DHT22;21053;50.848;4.652;2022-08-21T06:55:37;16.70;99.90
34837;DHT22;21053;50.848;4.652;2022-08-21T06:58:04;16.80;99.90
34837;DHT22;21053;50.848;4.652;2022-08-21T07:00:31;17.00;99.90
34837;DHT22;21053;50.848;4.652;2022-08-21T07:02:58;17.20;99.90
34837;DHT22;21053;50.848;4.652;2022-08-21T07:05:29;17.30;99.90
34837;DHT22;21053;50.848;4.652;2022-08-21T07:07:56;17.30;99.90
34837;DHT22;21053;50.848;4.652;2022-08-21T07:10:26;17.40;99.90
34837;DHT22;21053;50.848;4.652;2022-08-21T07:12:54;17.60;99.90
34837;DHT22;21053;50.848;4.652;2022-08-21T07:15:21;17.60;99.90
34837;DHT22;21053;50.848;4.652;2022-08-21T07:17:49;17.90;99.90
34837;DHT22;21053;50.848;4.652;2022-08-21T07:20:15;18.00;99.90
34837;DHT22;21053;50.848;4.652;2022-08-21T07:22:43;18.30;99.90
34837;DHT22;21053;50.848;4.652;2022-08-21T07:25:10;18.50;99.90
34837;DHT22;21053;50.848;4.652;2022-08-21T07:27:37;19.00;99.90
34837;DHT22;21053;50.848;4.652;2022-08-21T07:30:04;19.60;99.90
34837;DHT22;21053;50.848;4.652;2022-08-21T07:32:30;20.10;99.90
34837;DHT22;21053;50.848;4.652;2022-08-21T07:34:58;20.60;99.90
34837;DHT22;21053;50.848;4.652;2022-08-21T07:37:24;20.90;99.90
34837;DHT22;21053;50.848;4.652;2022-08-21T07:39:52;21.10;99.90
34837;DHT22;21053;50.848;4.652;2022-08-21T07:42:20;21.40;99.90
34837;DHT22;21053;50.848;4.652;2022-08-21T07:44:48;21.50;99.90
34837;DHT22;21053;50.848;4.652;2022-08-21T07:47:15;21.50;99.90
34837;DHT22;21053;50.848;4.652;2022-08-21T07:49:42;21.30;99.90
34837;DHT22;21053;50.848;4.652;2022-08-21T07:52:09;21.00;99.90
34837;DHT22;21053;50.848;4.652;2022-08-21T07:54:34;20.80;99.90
34837;DHT22;21053;50.848;4.652;2022-08-21T07:57:00;20.50;99.90
34837;DHT22;21053;50.848;4.652;2022-08-21T07:59:26;20.60;99.90
34837;DHT22;21053;50.848;4.652;2022-08-21T08:01:52;20.90;99.90
34837;DHT22;21053;50.848;4.652;2022-08-21T08:04:21;21.10;99.90
34837;DHT22;21053;50.848;4.652;2022-08-21T08:06:49;21.40;99.90
34837;DHT22;21053;50.848;4.652;2022-08-21T08:09:16;21.80;99.90
34837;DHT22;21053;50.848;4.652;2022-08-21T08:11:43;22.10;99.90
34837;DHT22;21053;50.848;4.652;2022-08-21T08:14:12;22.40;98.50
34837;DHT22;21053;50.848;4.652;2022-08-21T08:16:38;22.50;98.10
34837;DHT22;21053;50.848;4.652;2022-08-21T08:19:03;22.60;97.70
34837;DHT22;21053;50.848;4.652;2022-08-21T08:21:30;22.80;97.70
34837;DHT22;21053;50.848;4.652;2022-08-21T08:23:59;23.00;97.60
34837;DHT22;21053;50.848;4.652;2022-08-21T08:26:24;23.00;95.40
34837;DHT22;21053;50.848;4.652;2022-08-21T08:28:51;23.10;96.40
34837;DHT22;21053;50.848;4.652;2022-08-21T08:31:18;22.90;95.80
34837;DHT22;21053;50.848;4.652;2022-08-21T08:33:45;22.70;96.10
34837;DHT22;21053;50.848;4.652;2022-08-21T08:36:16;22.60;96.60
34837;DHT22;21053;50.848;4.652;2022-08-21T08:38:46;22.60;96.00
34837;DHT22;21053;50.848;4.652;2022-08-21T08:41:18;22.70;96.40
34837;DHT22;21053;50.848;4.652;2022-08-21T08:43:50;22.70;96.60
34837;DHT22;21053;50.848;4.652;2022-08-21T08:46:22;22.60;96.10
34837;DHT22;21053;50.848;4.652;2022-08-21T08:48:57;22.50;96.20
34837;DHT22;21053;50.848;4.652;2022-08-21T08:51:30;22.60;96.10
34837;DHT22;21053;50.848;4.652;2022-08-21T08:54:03;22.70;96.50
34837;DHT22;21053;50.848;4.652;2022-08-21T08:56:33;22.90;96.40
34837;DHT22;21053;50.848;4.652;2022-08-21T08:59:31;23.20;96.00
34837;DHT22;21053;50.848;4.652;2022-08-21T09:01:53;23.40;95.10
34837;DHT22;21053;50.848;4.652;2022-08-21T09:04:26;23.50;93.70
34837;DHT22;21053;50.848;4.652;2022-08-21T09:07:19;23.80;93.30
34837;DHT22;21053;50.848;4.652;2022-08-21T09:13:04;24.60;93.30
34837;DHT22;21053;50.848;4.652;2022-08-21T09:29:23;25.60;87.90
34837;DHT22;21053;50.848;4.652;2022-08-21T09:31:50;25.30;87.00
34837;DHT22;21053;50.848;4.652;2022-08-21T09:34:26;25.20;90.00
34837;DHT22;21053;50.848;4.652;2022-08-21T09:36:53;25.10;89.80
34837;DHT22;21053;50.848;4.652;2022-08-21T09:39:30;25.50;88.70
34837;DHT22;21053;50.848;4.652;2022-08-21T09:42:02;25.90;90.10
34837;DHT22;21053;50.848;4.652;2022-08-21T09:44:34;26.30;86.90
34837;DHT22;21053;50.848;4.652;2022-08-21T09:47:07;26.50;86.40
34837;DHT22;21053;50.848;4.652;2022-08-21T09:49:35;26.60;85.70
34837;DHT22;21053;50.848;4.652;2022-08-21T09:52:03;26.50;87.00
34837;DHT22;21053;50.848;4.652;2022-08-21T09:54:36;26.60;83.30
34837;DHT22;21053;50.848;4.652;2022-08-21T09:59:55;27.10;82.70
34837;DHT22;21053;50.848;4.652;2022-08-21T10:02:34;27.20;81.20
34837;DHT22;21053;50.848;4.652;2022-08-21T10:05:02;27.10;81.30
34837;DHT22;21053;50.848;4.652;2022-08-21T10:07:31;26.70;80.20
34837;DHT22;21053;50.848;4.652;2022-08-21T10:10:07;26.10;82.40
34837;DHT22;21053;50.848;4.652;2022-08-21T10:12:41;25.80;84.60
34837;DHT22;21053;50.848;4.652;2022-08-21T10:15:20;25.60;85.20
34837;DHT22;21053;50.848;4.652;2022-08-21T10:18:07;25.20;87.30
34837;DHT22;21053;50.848;4.652;2022-08-21T10:31:21;24.80;89.00
34837;DHT22;21053;50.848;4.652;2022-08-21T10:34:12;25.10;88.10
34837;DHT22;21053;50.848;4.652;2022-08-21T10:37:09;25.30;87.90
34837;DHT22;21053;50.848;4.652;2022-08-21T10:40:14;25.70;89.40
34837;DHT22;21053;50.848;4.652;2022-08-21T10:48:03;27.90;83.40
34837;DHT22;21053;50.848;4.652;2022-08-21T10:50:50;28.20;79.10
34837;DHT22;21053;50.848;4.652;2022-08-21T10:56:29;28.00;77.00
34837;DHT22;21053;50.848;4.652;2022-08-21T11:02:31;27.20;79.90
34837;DHT22;21053;50.848;4.652;2022-08-21T11:05:25;27.10;79.20
34837;DHT22;21053;50.848;4.652;2022-08-21T11:11:01;26.90;81.50
34837;DHT22;21053;50.848;4.652;2022-08-21T11:13:46;27.50;78.60
34837;DHT22;21053;50.848;4.652;2022-08-21T11:16:35;27.90;77.30
34837;DHT22;21053;50.848;4.652;2022-08-21T11:19:17;28.40;75.10
34837;DHT22;21053;50.848;4.652;2022-08-21T11:27:21;27.20;76.70
34837;DHT22;21053;50.848;4.652;2022-08-21T11:29:54;27.10;77.80
34837;DHT22;21053;50.848;4.652;2022-08-21T11:37:59;26.20;77.30
34837;DHT22;21053;50.848;4.652;2022-08-21T11:43:21;26.00;79.60
34837;DHT22;21053;50.848;4.652;2022-08-21T11:45:58;25.80;80.80
34837;DHT22;21053;50.848;4.652;2022-08-21T11:48:43;25.80;80.80
34837;DHT22;21053;50.848;4.652;2022-08-21T11:51:20;25.90;80.60
34837;DHT22;21053;50.848;4.652;2022-08-21T11:54:07;25.90;83.90
34837;DHT22;21053;50.848;4.652;2022-08-21T11:57:07;25.70;81.30
34837;DHT22;21053;50.848;4.652;2022-08-21T11:59:40;25.40;84.70
34837;DHT22;21053;50.848;4.652;2022-08-21T12:02:20;25.50;83.20
34837;DHT22;21053;50.848;4.652;2022-08-21T12:04:59;25.50;84.30
34837;DHT22;21053;50.848;4.652;2022-08-21T12:07:42;25.70;82.00
34837;DHT22;21053;50.848;4.652;2022-08-21T12:10:17;25.90;82.60
34837;DHT22;21053;50.848;4.652;2022-08-21T12:12:48;25.80;81.70
34837;DHT22;21053;50.848;4.652;2022-08-21T12:18:01;26.80;79.10
34837;DHT22;21053;50.848;4.652;2022-08-21T12:25:41;26.80;77.80
34837;DHT22;21053;50.848;4.652;2022-08-21T12:28:10;26.70;75.30
34837;DHT22;21053;50.848;4.652;2022-08-21T12:30:44;26.80;79.50
34837;DHT22;21053;50.848;4.652;2022-08-21T12:35:49;26.70;77.20
34837;DHT22;21053;50.848;4.652;2022-08-21T12:38:32;27.00;76.40
34837;DHT22;21053;50.848;4.652;2022-08-21T12:41:06;27.50;75.90
34837;DHT22;21053;50.848;4.652;2022-08-21T12:43:40;27.80;75.00
34837;DHT22;21053;50.848;4.652;2022-08-21T12:46:07;28.10;73.60
34837;DHT22;21053;50.848;4.652;2022-08-21T12:48:47;28.10;73.00
34837;DHT22;21053;50.848;4.652;2022-08-21T12:51:17;28.30;73.10
34837;DHT22;21053;50.848;4.652;2022-08-21T12:53:50;28.40;72.10
34837;DHT22;21053;50.848;4.652;2022-08-21T12:56:27;28.60;72.40
34837;DHT22;21053;50.848;4.652;2022-08-21T12:59:11;28.40;70.80
34837;DHT22;21053;50.848;4.652;2022-08-21T13:01:50;28.10;68.50
34837;DHT22;21053;50.848;4.652;2022-08-21T13:04:22;28.00;70.30
34837;DHT22;21053;50.848;4.652;2022-08-21T13:06:58;27.60;70.20
34837;DHT22;21053;50.848;4.652;2022-08-21T13:09:28;27.60;71.10
34837;DHT22;21053;50.848;4.652;2022-08-21T13:11:54;27.40;70.60
34837;DHT22;21053;50.848;4.652;2022-08-21T13:14:30;27.30;73.80
34837;DHT22;21053;50.848;4.652;2022-08-21T13:16:59;27.00;73.00
34837;DHT22;21053;50.848;4.652;2022-08-21T13:19:29;26.90;77.70
34837;DHT22;21053;50.848;4.652;2022-08-21T13:21:59;26.90;74.00
34837;DHT22;21053;50.848;4.652;2022-08-21T13:24:31;26.90;73.90
34837;DHT22;21053;50.848;4.652;2022-08-21T13:26:58;26.90;73.30
34837;DHT22;21053;50.848;4.652;2022-08-21T13:29:28;27.20;73.70
34837;DHT22;21053;50.848;4.652;2022-08-21T13:31:58;27.40;73.70
34837;DHT22;21053;50.848;4.652;2022-08-21T13:34:30;27.70;72.00
34837;DHT22;21053;50.848;4.652;2022-08-21T13:37:06;28.10;69.30
34837;DHT22;21053;50.848;4.652;2022-08-21T13:39:32;28.10;68.60
34837;DHT22;21053;50.848;4.652;2022-08-21T13:42:02;28.00;66.30
34837;DHT22;21053;50.848;4.652;2022-08-21T13:44:35;28.00;67.60
34837;DHT22;21053;50.848;4.652;2022-08-21T13:47:04;27.90;70.10
34837;DHT22;21053;50.848;4.652;2022-08-21T13:49:34;27.80;70.80
34837;DHT22;21053;50.848;4.652;2022-08-21T13:52:01;27.60;68.10
34837;DHT22;21053;50.848;4.652;2022-08-21T13:54:39;27.30;69.60
34837;DHT22;21053;50.848;4.652;2022-08-21T13:57:28;27.10;73.80
34837;DHT22;21053;50.848;4.652;2022-08-21T14:00:19;26.80;75.20
34837;DHT22;21053;50.848;4.652;2022-08-21T14:02:51;26.70;73.80
34837;DHT22;21053;50.848;4.652;2022-08-21T14:05:26;26.60;74.90
34837;DHT22;21053;50.848;4.652;2022-08-21T14:08:23;26.60;76.00
34837;DHT22;21053;50.848;4.652;2022-08-21T14:10:52;26.50;74.90
34837;DHT22;21053;50.848;4.652;2022-08-21T14:13:38;26.60;73.80
34837;DHT22;21053;50.848;4.652;2022-08-21T14:16:13;26.60;74.90
34837;DHT22;21053;50.848;4.652;2022-08-21T14:18:50;26.50;76.00
34837;DHT22;21053;50.848;4.652;2022-08-21T14:21:39;26.60;75.90
34837;DHT22;21053;50.848;4.652;2022-08-21T14:24:12;26.60;73.40
34837;DHT22;21053;50.848;4.652;2022-08-21T14:27:03;26.60;73.80
34837;DHT22;21053;50.848;4.652;2022-08-21T14:29:37;26.60;76.80
34837;DHT22;21053;50.848;4.652;2022-08-21T14:32:20;26.70;70.80
34837;DHT22;21053;50.848;4.652;2022-08-21T14:34:52;26.90;73.90
34837;DHT22;21053;50.848;4.652;2022-08-21T14:37:22;26.80;70.50
34837;DHT22;21053;50.848;4.652;2022-08-21T14:39:49;26.80;74.80
34837;DHT22;21053;50.848;4.652;2022-08-21T14:42:15;26.80;72.20
34837;DHT22;21053;50.848;4.652;2022-08-21T14:44:42;26.50;74.50
34837;DHT22;21053;50.848;4.652;2022-08-21T14:47:09;26.40;73.80
34837;DHT22;21053;50.848;4.652;2022-08-21T14:49:37;26.50;76.30
34837;DHT22;21053;50.848;4.652;2022-08-21T14:52:03;26.50;74.80
34837;DHT22;21053;50.848;4.652;2022-08-21T14:54:32;26.50;74.40
34837;DHT22;21053;50.848;4.652;2022-08-21T14:57:09;26.50;73.80
34837;DHT22;21053;50.848;4.652;2022-08-21T14:59:37;26.50;75.50
34837;DHT22;21053;50.848;4.652;2022-08-21T15:02:03;26.40;73.50
34837;DHT22;21053;50.848;4.652;2022-08-21T15:04:33;26.30;75.00
34837;DHT22;21053;50.848;4.652;2022-08-21T15:07:00;26.30;75.30
34837;DHT22;21053;50.848;4.652;2022-08-21T15:09:26;26.40;75.70
34837;DHT22;21053;50.848;4.652;2022-08-21T15:11:56;26.40;75.20
34837;DHT22;21053;50.848;4.652;2022-08-21T15:14:26;26.40;73.90
34837;DHT22;21053;50.848;4.652;2022-08-21T15:16:52;26.40;75.30
34837;DHT22;21053;50.848;4.652;2022-08-21T15:19:18;26.20;75.10
34837;DHT22;21053;50.848;4.652;2022-08-21T15:21:45;26.20;76.10
34837;DHT22;21053;50.848;4.652;2022-08-21T15:24:12;26.10;77.20
34837;DHT22;21053;50.848;4.652;2022-08-21T15:26:38;26.20;78.10
34837;DHT22;21053;50.848;4.652;2022-08-21T15:29:07;26.20;78.70
34837;DHT22;21053;50.848;4.652;2022-08-21T15:31:35;26.20;78.90
34837;DHT22;21053;50.848;4.652;2022-08-21T15:34:02;26.20;77.80
34837;DHT22;21053;50.848;4.652;2022-08-21T15:36:28;26.10;77.30
34837;DHT22;21053;50.848;4.652;2022-08-21T15:38:53;25.90;75.00
34837;DHT22;21053;50.848;4.652;2022-08-21T15:41:19;25.90;75.30
34837;DHT22;21053;50.848;4.652;2022-08-21T15:43:48;26.00;76.00
34837;DHT22;21053;50.848;4.652;2022-08-21T15:46:18;25.90;79.10
34837;DHT22;21053;50.848;4.652;2022-08-21T15:48:45;25.80;77.40
34837;DHT22;21053;50.848;4.652;2022-08-21T15:51:15;25.70;79.40
34837;DHT22;21053;50.848;4.652;2022-08-21T15:53:45;25.60;78.60
34837;DHT22;21053;50.848;4.652;2022-08-21T15:56:20;25.60;80.60
34837;DHT22;21053;50.848;4.652;2022-08-21T15:58:51;25.50;81.30
34837;DHT22;21053;50.848;4.652;2022-08-21T16:01:20;25.30;83.50
34837;DHT22;21053;50.848;4.652;2022-08-21T16:03:49;25.50;82.90
34837;DHT22;21053;50.848;4.652;2022-08-21T16:06:17;25.40;86.60
34837;DHT22;21053;50.848;4.652;2022-08-21T16:08:42;25.40;85.60
34837;DHT22;21053;50.848;4.652;2022-08-21T16:11:11;25.30;86.50
34837;DHT22;21053;50.848;4.652;2022-08-21T16:13:40;25.30;85.10
34837;DHT22;21053;50.848;4.652;2022-08-21T16:16:18;25.20;87.80
34837;DHT22;21053;50.848;4.652;2022-08-21T16:18:45;25.20;86.50
34837;DHT22;21053;50.848;4.652;2022-08-21T16:21:14;25.20;84.50
34837;DHT22;21053;50.848;4.652;2022-08-21T16:23:42;24.90;87.30
34837;DHT22;21053;50.848;4.652;2022-08-21T16:26:11;24.80;88.70
34837;DHT22;21053;50.848;4.652;2022-08-21T16:28:39;24.80;89.40
34837;DHT22;21053;50.848;4.652;2022-08-21T16:31:08;24.70;90.30
34837;DHT22;21053;50.848;4.652;2022-08-21T16:33:48;24.70;90.50
34837;DHT22;21053;50.848;4.652;2022-08-21T16:36:14;24.70;90.80
34837;DHT22;21053;50.848;4.652;2022-08-21T16:38:41;24.60;89.80
34837;DHT22;21053;50.848;4.652;2022-08-21T16:41:12;24.60;90.60
34837;DHT22;21053;50.848;4.652;2022-08-21T16:43:39;24.60;91.40
34837;DHT22;21053;50.848;4.652;2022-08-21T16:46:07;24.60;90.60
34837;DHT22;21053;50.848;4.652;2022-08-21T16:48:33;24.50;90.90
34837;DHT22;21053;50.848;4.652;2022-08-21T16:51:02;24.50;91.60
34837;DHT22;21053;50.848;4.652;2022-08-21T16:53:28;24.30;92.10
34837;DHT22;21053;50.848;4.652;2022-08-21T16:55:54;24.20;93.10
34837;DHT22;21053;50.848;4.652;2022-08-21T16:58:29;24.20;93.30
34837;DHT22;21053;50.848;4.652;2022-08-21T17:00:57;24.10;92.30
34837;DHT22;21053;50.848;4.652;2022-08-21T17:03:33;24.00;92.90